Time;durP1;ratioP1;P1;durP2;ratioP2;P2;SDS_P1;SDS_P2;PMS_P1;PMS_P2;Temp;Humidity;BMP_temperature;BMP_pressure;BME280_temperature;BME280_humidity;BME280_pressure;Samples;Min_cycle;Max_cycle;Signal;HPM_P1;HPM_P2
2023/10/29 00:00:43;;;;;;;6.32;3.17;;;;;;;15.33;96.72;64569.78;5031854;28;20643;-54
2023/10/29 00:03:10;;;;;;;8.07;3.00;;;;;;;15.27;97.02;64563.19;4997571;28;20575;-54
2023/10/29 00:05:36;;;;;;;4.60;2.95;;;;;;;15.23;98.80;64561.31;5031659;28;20186;-56
2023/10/29 00:08:02;;;;;;;6.45;3.22;;;;;;;15.23;98.35;64563.84;5031982;28;20206;-56
2023/10/29 00:10:27;;;;;;;5.57;3.25;;;;;;;15.25;96.41;64563.53;5031938;28;20240;-55
2023/10/29 00:12:53;;;;;;;9.90;3.50;;;;;;;15.15;98.45;64553.06;5082129;22;20259;-53
2023/10/29 00:15:18;;;;;;;9.05;3.92;;;;;;;15.15;99.84;64553.06;5091739;28;20207;-57
2023/10/29 00:17:43;;;;;;;8.25;3.60;;;;;;;15.28;97.48;64566.28;5077743;28;20353;-54
2023/10/29 00:20:09;;;;;;;9.32;3.90;;;;;;;15.20;96.77;64560.56;5071468;28;20212;-54
2023/10/29 00:22:34;;;;;;;6.50;3.22;;;;;;;15.07;98.06;64541.19;5071245;28;20321;-56
2023/10/29 00:25:00;;;;;;;10.15;3.38;;;;;;;15.03;97.36;64539.88;5071016;28;20193;-56
2023/10/29 00:27:26;;;;;;;7.53;3.33;;;;;;;14.99;96.56;64535.50;5071601;28;20213;-57
2023/10/29 00:29:52;;;;;;;6.70;3.00;;;;;;;14.89;98.18;64521.41;5071521;28;20270;-55
2023/10/29 00:32:18;;;;;;;13.98;4.05;;;;;;;14.69;99.61;64505.06;5070927;28;20213;-56
2023/10/29 00:34:48;;;;;;;7.90;3.55;;;;;;;14.87;97.92;64522.28;5071369;28;20208;-55
2023/10/29 00:37:14;;;;;;;6.00;3.05;;;;;;;14.79;99.15;64516.03;5071288;28;20208;-55
2023/10/29 00:39:40;;;;;;;6.15;3.33;;;;;;;14.77;100.00;64510.75;5071272;28;20204;-54
2023/10/29 00:42:06;;;;;;;11.30;3.38;;;;;;;14.89;98.43;64523.94;5070982;28;20371;-55
2023/10/29 00:44:31;;;;;;;10.43;3.50;;;;;;;14.83;98.82;64517.34;5070895;28;20692;-54
2023/10/29 00:46:58;;;;;;;8.70;3.20;;;;;;;14.69;100.00;64502.50;5071214;28;20208;-56
2023/10/29 00:49:24;;;;;;;7.07;3.22;;;;;;;14.55;100.00;64487.13;5070878;28;20200;-56
2023/10/29 00:51:50;;;;;;;8.88;4.00;;;;;;;14.53;100.00;64482.41;5071163;28;20223;-56
2023/10/29 00:54:17;;;;;;;5.07;3.28;;;;;;;14.73;99.79;64506.91;5070898;28;20195;-57
2023/10/29 00:56:43;;;;;;;9.60;3.35;;;;;;;14.60;100.00;64494.63;5071053;28;20247;-53
2023/10/29 00:59:11;;;;;;;6.13;2.25;;;;;;;14.60;94.56;64492.63;5071258;28;20232;-56
2023/10/29 01:01:37;;;;;;;4.35;2.60;;;;;;;14.45;96.25;64473.59;5052439;28;20217;-56
2023/10/29 01:04:04;;;;;;;3.70;1.77;;;;;;;14.41;92.57;64469.22;5070842;28;20212;-53
2023/10/29 01:06:31;;;;;;;5.78;2.30;;;;;;;14.26;93.61;64458.31;5070782;28;20303;-53
2023/10/29 01:08:56;;;;;;;6.05;1.73;;;;;;;14.38;92.64;64468.47;5070606;28;20216;-54
2023/10/29 01:11:22;;;;;;;4.88;2.15;;;;;;;14.28;92.68;64460.00;5070620;28;20200;-55
2023/10/29 01:13:48;;;;;;;4.28;1.90;;;;;;;14.33;92.54;64462.97;5053087;28;20204;-56
2023/10/29 01:16:13;;;;;;;4.75;1.88;;;;;;;14.32;93.67;64462.41;5070761;28;20208;-60
2023/10/29 01:18:38;;;;;;;2.95;1.52;;;;;;;14.24;93.16;64453.06;5052601;28;20207;-62
2023/10/29 01:21:04;;;;;;;2.75;1.90;;;;;;;14.16;95.30;64442.28;5070355;28;20694;-57
2023/10/29 01:23:30;;;;;;;5.35;1.60;;;;;;;14.08;93.68;64436.00;5070618;28;20290;-56
2023/10/29 01:25:59;;;;;;;6.90;2.13;;;;;;;14.14;95.46;64440.06;5070357;28;20343;-56
2023/10/29 01:28:25;;;;;;;7.50;1.90;;;;;;;14.20;97.84;64451.19;5070620;28;20240;-56
2023/10/29 01:30:51;;;;;;;5.57;2.03;;;;;;;14.22;95.24;64448.84;5070505;28;20199;-56
2023/10/29 01:33:16;;;;;;;5.55;2.08;;;;;;;14.20;96.05;64451.72;5070047;28;20212;-55
2023/10/29 01:35:42;;;;;;;7.55;1.98;;;;;;;14.18;97.09;64446.47;5070471;28;20284;-56
2023/10/29 01:38:07;;;;;;;4.40;2.08;;;;;;;14.22;97.97;64453.41;5073102;28;20287;-56
2023/10/29 01:40:33;;;;;;;5.63;1.75;;;;;;;14.19;96.37;64447.56;5074084;28;20671;-57
2023/10/29 01:42:58;;;;;;;5.72;2.80;;;;;;;14.19;95.02;64447.56;5073812;28;20605;-56
2023/10/29 01:45:25;;;;;;;5.15;2.33;;;;;;;14.15;95.66;64446.25;5073897;28;20238;-53
2023/10/29 01:47:50;;;;;;;4.53;2.13;;;;;;;13.85;97.79;64410.22;5073644;28;20217;-53
2023/10/29 01:50:15;;;;;;;3.85;2.17;;;;;;;13.73;99.25;64399.56;5073747;28;20200;-54
2023/10/29 01:52:41;;;;;;;4.80;3.10;;;;;;;13.67;100.00;64390.44;5073412;28;20251;-53
2023/10/29 01:55:07;;;;;;;6.53;2.60;;;;;;;13.76;99.71;64397.78;5073574;28;20189;-54
2023/10/29 01:57:34;;;;;;;4.32;2.17;;;;;;;13.88;100.00;64413.50;5055886;28;20237;-53
2023/10/29 02:00:00;;;;;;;4.50;2.13;;;;;;;14.13;98.33;64438.44;5055578;28;20200;-54
2023/10/29 02:02:25;;;;;;;8.40;2.95;;;;;;;14.09;97.69;64439.09;5055644;28;20568;-54
2023/10/29 02:04:51;;;;;;;7.75;3.00;;;;;;;13.95;99.41;64421.19;5055667;28;20243;-53
2023/10/29 02:07:16;;;;;;;5.00;2.60;;;;;;;13.81;100.00;64406.38;5055525;28;20215;-53
2023/10/29 02:09:42;;;;;;;7.80;2.80;;;;;;;13.74;100.00;64400.66;5055364;28;20201;-53
2023/10/29 02:12:07;;;;;;;5.57;2.75;;;;;;;13.83;99.79;64408.56;5072604;28;20288;-54
2023/10/29 02:14:36;;;;;;;9.18;3.42;;;;;;;13.73;100.00;64397.59;5073194;28;20199;-54
2023/10/29 02:17:02;;;;;;;4.85;3.00;;;;;;;13.65;99.92;64390.78;5039390;28;20304;-54
2023/10/29 02:19:27;;;;;;;5.30;2.25;;;;;;;13.55;98.62;64377.81;5073130;28;20257;-54
2023/10/29 02:21:54;;;;;;;6.32;2.05;;;;;;;13.55;96.81;64380.34;5073859;28;20219;-54
2023/10/29 02:24:19;;;;;;;5.30;1.67;;;;;;;13.52;97.40;64373.97;5055034;28;20197;-54
2023/10/29 02:26:45;;;;;;;3.05;1.65;;;;;;;13.47;100.00;64369.03;5073342;28;20212;-54
2023/10/29 02:29:10;;;;;;;5.20;1.60;;;;;;;13.43;100.00;64367.72;5073065;28;20667;-54
2023/10/29 02:31:35;;;;;;;4.50;2.17;;;;;;;13.48;99.60;64373.22;5073006;28;20342;-56
2023/10/29 02:34:01;;;;;;;3.25;1.88;;;;;;;13.47;100.00;64369.03;5073228;28;20701;-58
2023/10/29 02:36:26;;;;;;;2.53;1.80;;;;;;;13.74;97.26;64400.66;5072986;28;20590;-55
2023/10/29 02:38:53;;;;;;;4.55;2.15;;;;;;;13.75;97.56;64396.69;5072854;28;20294;-55
2023/10/29 02:41:18;;;;;;;6.72;2.47;;;;;;;13.86;96.02;64408.75;5054789;28;20297;-54
2023/10/29 02:43:44;;;;;;;4.82;1.83;;;;;;;13.79;96.03;64403.63;5072825;28;20666;-58
2023/10/29 02:46:10;;;;;;;3.28;1.60;;;;;;;13.59;99.35;64382.22;5073180;28;20268;-55
2023/10/29 02:48:36;;;;;;;6.53;1.98;;;;;;;13.52;99.03;64377.06;5055013;28;20196;-55
2023/10/29 02:51:02;;;;;;;3.90;1.65;;;;;;;13.49;97.28;64371.25;5072889;28;20208;-56
2023/10/29 02:53:28;;;;;;;4.03;1.83;;;;;;;13.57;95.55;64379.47;5072620;28;20755;-56
2023/10/29 02:55:58;;;;;;;8.77;1.73;;;;;;;13.54;97.91;64376.16;5072567;28;20200;-54
2023/10/29 02:58:24;;;;;;;6.45;1.95;;;;;;;13.68;96.47;64391.53;5072825;28;20192;-54
2023/10/29 03:00:49;;;;;;;2.65;1.40;;;;;;;13.57;96.86;64379.47;5072541;28;20684;-56
2023/10/29 03:03:15;;;;;;;2.45;1.55;;;;;;;13.07;100.00;64323.16;5054506;28;20295;-54
2023/10/29 03:05:40;;;;;;;5.38;2.20;;;;;;;13.25;99.38;64342.91;5072695;28;20577;-53
2023/10/29 03:08:05;;;;;;;4.18;1.60;;;;;;;13.18;99.59;64337.75;5072629;28;20226;-55
2023/10/29 03:10:32;;;;;;;6.10;2.58;;;;;;;12.93;100.00;64307.78;5054566;28;20222;-54
2023/10/29 03:12:58;;;;;;;4.70;1.98;;;;;;;12.98;100.00;64317.78;5072505;28;20211;-53
2023/10/29 03:15:24;;;;;;;5.47;2.30;;;;;;;13.01;100.00;64319.06;5072336;28;20201;-54
2023/10/29 03:17:50;;;;;;;4.57;2.25;;;;;;;13.07;100.00;64327.69;5072406;28;20287;-53
2023/10/29 03:20:16;;;;;;;2.60;1.90;;;;;;;13.25;100.00;64347.97;5072417;28;20197;-54
2023/10/29 03:22:42;;;;;;;6.78;2.40;;;;;;;13.03;100.00;64321.28;5072196;28;20225;-54
2023/10/29 03:25:08;;;;;;;6.20;2.30;;;;;;;12.93;100.00;64312.81;5072242;28;20204;-54
2023/10/29 03:27:34;;;;;;;4.30;2.17;;;;;;;13.08;100.00;64326.22;5072177;28;20588;-55
2023/10/29 03:30:00;;;;;;;2.60;2.00;;;;;;;13.21;100.00;64341.03;5072312;28;20282;-61
2023/10/29 03:32:25;;;;;;;8.00;2.50;;;;;;;13.22;100.00;64341.59;5072006;28;20628;-55
2023/10/29 03:34:51;;;;;;;3.63;1.90;;;;;;;13.01;100.00;64319.06;5072281;28;20650;-55
2023/10/29 03:37:16;;;;;;;4.90;2.70;;;;;;;12.96;100.00;64311.06;5072202;28;20209;-55
2023/10/29 03:39:42;;;;;;;4.05;2.00;;;;;;;12.91;100.00;64308.09;5072179;28;20288;-56
2023/10/29 03:42:07;;;;;;;7.30;2.22;;;;;;;13.07;100.00;64325.69;5071923;28;20591;-55
2023/10/29 03:44:32;;;;;;;4.10;1.65;;;;;;;13.11;99.71;64330.06;5071987;28;20655;-56
2023/10/29 03:46:58;;;;;;;5.55;1.98;;;;;;;13.01;100.00;64316.53;5071783;28;20637;-53
2023/10/29 03:49:24;;;;;;;4.95;1.90;;;;;;;12.81;100.00;64299.66;5071858;28;20204;-54
2023/10/29 03:51:49;;;;;;;4.47;2.07;;;;;;;12.79;100.00;64297.47;5072041;28;20635;-54
2023/10/29 03:54:15;;;;;;;4.97;1.73;;;;;;;12.76;100.00;64291.09;5072035;28;20195;-55
2023/10/29 03:56:41;;;;;;;3.78;1.92;;;;;;;12.71;100.00;64288.69;5071813;28;20201;-54
2023/10/29 03:59:06;;;;;;;5.35;2.13;;;;;;;12.78;100.00;64293.84;5071389;28;20686;-56
2023/10/29 04:01:32;;;;;;;5.95;2.10;;;;;;;12.73;100.00;64285.84;5071449;28;20698;-54
2023/10/29 04:03:58;;;;;;;5.55;2.45;;;;;;;12.72;100.00;64284.75;5071352;28;20663;-54
2023/10/29 04:06:24;;;;;;;3.75;2.10;;;;;;;12.74;100.00;64292.00;5071309;28;20649;-54
2023/10/29 04:08:49;;;;;;;4.60;2.05;;;;;;;12.78;100.00;64293.84;5071572;28;20201;-53
2023/10/29 04:11:15;;;;;;;4.95;1.88;;;;;;;12.89;100.00;64305.38;5053760;28;20200;-56
2023/10/29 04:13:40;;;;;;;3.05;2.08;;;;;;;13.03;100.00;64321.28;5071367;28;20277;-56
2023/10/29 04:16:06;;;;;;;6.70;2.17;;;;;;;12.96;100.00;64310.53;5071428;28;20587;-56
2023/10/29 04:18:33;;;;;;;3.63;2.15;;;;;;;12.90;100.00;64309.53;5071344;28;20517;-57
2023/10/29 04:21:00;;;;;;;11.40;2.17;;;;;;;12.79;99.96;64297.47;5071271;28;20765;-56
2023/10/29 04:23:26;;;;;;;3.20;2.13;;;;;;;12.71;99.86;64283.63;5070741;28;20213;-57
2023/10/29 04:25:51;;;;;;;4.32;1.85;;;;;;;12.72;100.00;64287.28;5053203;28;20687;-56
2023/10/29 04:28:16;;;;;;;4.70;1.60;;;;;;;12.51;100.00;64264.78;5071248;28;20204;-57
2023/10/29 04:30:42;;;;;;;4.33;2.20;;;;;;;12.41;100.00;64251.28;5071244;28;20637;-56
2023/10/29 04:33:08;;;;;;;7.45;1.85;;;;;;;12.49;100.00;64262.03;5071101;28;20201;-56
2023/10/29 04:35:33;;;;;;;2.03;1.40;;;;;;;12.49;100.00;64267.66;5071090;28;20283;-56
2023/10/29 04:37:59;;;;;;;4.22;1.80;;;;;;;12.57;100.00;64273.88;5071058;28;20278;-56
2023/10/29 04:40:25;;;;;;;5.32;1.77;;;;;;;12.57;100.00;64273.88;5070893;28;20635;-56
2023/10/29 04:42:50;;;;;;;3.45;2.10;;;;;;;12.54;100.00;64270.59;5070897;28;20232;-57
2023/10/29 04:45:16;;;;;;;6.22;2.53;;;;;;;12.74;100.00;64289.47;5071106;28;20681;-55
2023/10/29 04:47:41;;;;;;;6.97;2.10;;;;;;;12.87;100.00;64305.69;5088724;22;20220;-56
2023/10/29 04:50:07;;;;;;;5.45;2.28;;;;;;;12.76;99.86;64291.09;5091049;28;20200;-56
2023/10/29 04:52:33;;;;;;;9.23;3.42;;;;;;;12.90;100.00;64309.53;5078866;28;20255;-55
2023/10/29 04:55:01;;;;;;;8.25;2.03;;;;;;;12.75;95.03;64290.56;5070806;28;20611;-56
2023/10/29 04:57:28;;;;;;;5.27;2.00;;;;;;;12.57;98.28;64270.81;5091532;22;20220;-55
2023/10/29 04:59:53;;;;;;;4.78;1.65;;;;;;;12.46;99.10;64256.75;5091048;28;20204;-54
2023/10/29 05:02:19;;;;;;;5.60;2.47;;;;;;;12.54;100.00;64268.06;5080275;28;20235;-57
2023/10/29 05:04:44;;;;;;;5.68;1.80;;;;;;;12.66;100.00;64280.69;5052661;28;20200;-58
2023/10/29 05:07:10;;;;;;;5.03;1.70;;;;;;;12.87;98.43;64303.72;5070500;28;20223;-55
2023/10/29 05:09:35;;;;;;;6.20;1.53;;;;;;;12.86;97.50;64302.63;5070773;28;20211;-57
2023/10/29 05:12:01;;;;;;;3.60;1.42;;;;;;;12.58;99.62;64274.97;5069756;28;20745;-57
2023/10/29 05:14:27;;;;;;;4.83;2.33;;;;;;;12.67;99.36;64281.78;5070554;28;20204;-56
2023/10/29 05:16:52;;;;;;;6.23;2.57;;;;;;;12.54;99.11;64270.06;5070187;28;20212;-55
2023/10/29 05:19:18;;;;;;;5.72;2.10;;;;;;;12.46;100.00;64261.81;5070463;28;20169;-56
2023/10/29 05:21:44;;;;;;;4.40;1.77;;;;;;;12.58;100.00;64271.91;5070550;28;20212;-55
2023/10/29 05:24:09;;;;;;;3.95;2.05;;;;;;;12.59;100.00;64270.47;5052473;28;20626;-56
2023/10/29 05:26:37;;;;;;;3.20;2.05;;;;;;;12.43;100.00;64255.47;5070743;28;20225;-55
2023/10/29 05:29:03;;;;;;;10.63;3.42;;;;;;;12.13;100.00;64225.09;5070409;28;20196;-55
2023/10/29 05:31:28;;;;;;;8.57;3.50;;;;;;;12.28;100.00;64241.53;5052308;28;20311;-56
2023/10/29 05:33:54;;;;;;;12.32;4.55;;;;;;;12.07;100.00;64214.00;5070589;28;20614;-54
2023/10/29 05:36:19;;;;;;;3.75;2.53;;;;;;;12.37;100.00;64248.88;5070733;28;20200;-54
2023/10/29 05:38:45;;;;;;;5.63;2.73;;;;;;;12.33;100.00;64244.50;5070439;28;20646;-54
2023/10/29 05:41:10;;;;;;;4.20;2.30;;;;;;;12.36;100.00;64250.31;5070434;28;20223;-53
2023/10/29 05:43:37;;;;;;;7.32;2.17;;;;;;;12.31;100.00;64245.38;5052457;28;20212;-54
2023/10/29 05:46:03;;;;;;;5.65;2.15;;;;;;;12.32;100.00;64243.94;5052528;28;20701;-54
2023/10/29 05:48:28;;;;;;;3.40;1.98;;;;;;;12.49;100.00;64264.56;5070258;28;20205;-54
2023/10/29 05:50:53;;;;;;;4.63;1.90;;;;;;;12.25;100.00;64236.28;5070229;28;20709;-55
2023/10/29 05:53:19;;;;;;;6.73;2.37;;;;;;;12.30;100.00;64243.75;5052271;28;20212;-54
2023/10/29 05:55:44;;;;;;;5.18;2.53;;;;;;;12.35;100.00;64249.75;5070181;28;20596;-54
2023/10/29 05:58:10;;;;;;;4.75;2.45;;;;;;;12.54;100.00;64268.06;5070203;28;20217;-54
2023/10/29 06:00:36;;;;;;;8.48;2.50;;;;;;;12.73;100.00;64288.34;5070306;28;20233;-54
2023/10/29 06:03:01;;;;;;;7.10;2.30;;;;;;;12.79;100.00;64294.94;5070016;28;20223;-54
2023/10/29 06:05:27;;;;;;;3.60;2.50;;;;;;;12.74;100.00;64291.44;5052256;28;20197;-56
2023/10/29 06:07:53;;;;;;;6.30;2.25;;;;;;;12.77;100.00;64295.28;5069890;28;20682;-56
2023/10/29 06:10:18;;;;;;;5.70;2.70;;;;;;;12.70;100.00;64287.06;5070174;28;20182;-57
2023/10/29 06:12:44;;;;;;;10.23;2.40;;;;;;;12.71;100.00;64283.09;5070018;28;20311;-56
2023/10/29 06:15:12;;;;;;;4.90;2.65;;;;;;;12.57;100.00;64273.34;5070106;28;20276;-55
2023/10/29 06:17:39;;;;;;;4.95;2.65;;;;;;;12.72;100.00;64286.72;5052126;28;20303;-54
2023/10/29 06:20:08;;;;;;;3.90;2.63;;;;;;;12.86;100.00;64302.06;5070002;28;20169;-56
2023/10/29 06:22:34;;;;;;;3.73;2.47;;;;;;;13.00;100.00;64312.94;5052332;28;20216;-56
2023/10/29 06:24:59;;;;;;;4.38;3.00;;;;;;;13.25;99.74;64345.44;5073230;28;20200;-56
2023/10/29 06:27:25;;;;;;;4.85;2.67;;;;;;;13.29;99.01;64349.81;5073366;28;20228;-55
2023/10/29 06:29:51;;;;;;;4.18;3.03;;;;;;;13.39;100.00;64360.81;5073204;28;20717;-56
2023/10/29 06:32:16;;;;;;;5.32;3.20;;;;;;;13.38;100.00;64357.19;5073040;28;20788;-55
2023/10/29 06:34:41;;;;;;;7.15;2.85;;;;;;;13.50;99.60;64372.34;5073056;28;20247;-55
2023/10/29 06:37:07;;;;;;;6.33;3.00;;;;;;;13.52;100.00;64371.44;5054915;28;20296;-55
2023/10/29 06:39:39;;;;;;;5.22;2.90;;;;;;;13.64;98.96;64387.16;5073102;28;20690;-53
2023/10/29 06:42:06;;;;;;;3.90;2.75;;;;;;;13.65;100.00;64388.81;5073240;28;20605;-56
2023/10/29 06:44:32;;;;;;;5.05;2.88;;;;;;;13.69;97.50;64393.19;5055118;28;20201;-58
2023/10/29 06:46:57;;;;;;;5.32;2.40;;;;;;;13.85;97.78;64407.69;5086005;22;20235;-54
2023/10/29 06:49:22;;;;;;;3.65;2.92;;;;;;;13.94;94.92;64423.16;5093156;28;20540;-54
2023/10/29 06:51:55;;;;;;;5.38;2.42;;;;;;;14.14;90.90;64442.06;5087288;28;20209;-56
2023/10/29 06:54:21;;;;;;;5.30;2.75;;;;;;;14.16;93.36;64446.78;5073374;28;20193;-55
2023/10/29 06:56:47;;;;;;;8.23;2.45;;;;;;;14.11;92.13;64439.31;5072904;28;20220;-56
2023/10/29 06:59:13;;;;;;;3.78;2.15;;;;;;;14.27;86.71;64458.88;5072551;28;20291;-55
2023/10/29 07:01:38;;;;;;;19.95;11.77;;;;;;;14.15;87.53;64446.25;5072951;28;20269;-56
2023/10/29 07:04:04;;;;;;;7.13;3.58;;;;;;;14.37;86.52;64469.34;5072601;28;20205;-54
2023/10/29 07:06:30;;;;;;;9.82;6.93;;;;;;;14.42;87.14;64472.84;5072734;28;20666;-54
2023/10/29 07:08:56;;;;;;;9.30;3.30;;;;;;;14.30;88.79;64460.19;5055051;28;20192;-54
2023/10/29 07:11:21;;;;;;;3.65;2.15;;;;;;;14.22;89.43;64448.31;5054879;28;20200;-54
2023/10/29 07:13:47;;;;;;;4.68;2.53;;;;;;;14.22;88.48;64450.84;5054592;28;20224;-54
2023/10/29 07:16:16;;;;;;;5.38;2.88;;;;;;;14.39;88.58;64469.00;5072838;28;20211;-56
2023/10/29 07:18:43;;;;;;;6.55;3.88;;;;;;;14.44;89.82;64477.03;5054996;28;20294;-55
2023/10/29 07:21:09;;;;;;;7.28;3.70;;;;;;;14.52;89.13;64483.28;5072282;28;20587;-54
2023/10/29 07:23:35;;;;;;;7.63;4.10;;;;;;;14.71;88.57;64504.72;5072506;28;20584;-55
2023/10/29 07:26:00;;;;;;;8.52;3.65;;;;;;;15.10;100.00;64547.03;5072828;28;20201;-54
2023/10/29 07:28:29;;;;;;;8.07;2.72;;;;;;;16.08;100.00;64653.75;5072349;28;20201;-55
2023/10/29 07:30:58;;;;;;;5.53;3.22;;;;;;;16.47;90.96;64694.13;5070851;28;20650;-54
2023/10/29 07:33:24;;;;;;;5.00;2.92;;;;;;;16.29;87.93;64677.41;5072415;28;20747;-54
2023/10/29 07:35:50;;;;;;;8.13;3.30;;;;;;;16.22;80.73;64667.16;5071742;28;20292;-55
2023/10/29 07:38:15;;;;;;;7.05;3.30;;;;;;;16.34;92.71;64679.84;5054512;28;20234;-55
2023/10/29 07:40:41;;;;;;;6.43;3.30;;;;;;;16.64;91.73;64712.88;5072230;28;20295;-55
2023/10/29 07:43:07;;;;;;;5.95;3.08;;;;;;;17.16;92.45;64769.59;5072281;28;20221;-56
2023/10/29 07:45:33;;;;;;;7.38;3.55;;;;;;;17.43;84.04;64801.91;5072454;28;20705;-57
2023/10/29 07:47:59;;;;;;;10.20;4.03;;;;;;;17.55;81.47;64810.59;5072254;28;20308;-57
2023/10/29 07:50:24;;;;;;;6.13;2.90;;;;;;;17.83;72.76;64843.47;5054038;28;20254;-56
2023/10/29 07:52:50;;;;;;;7.15;3.58;;;;;;;17.81;68.12;64843.81;5072056;28;20266;-55
2023/10/29 07:55:15;;;;;;;8.00;3.13;;;;;;;17.53;68.88;64810.94;5071993;28;20193;-54
2023/10/29 07:57:42;;;;;;;7.80;3.58;;;;;;;17.41;72.97;64799.69;5071891;28;20216;-54
2023/10/29 08:00:14;;;;;;;7.00;3.10;;;;;;;17.80;83.82;64842.13;5071840;28;20197;-54
2023/10/29 08:02:42;;;;;;;7.72;2.70;;;;;;;18.15;78.36;64880.72;5071614;28;20640;-54
2023/10/29 08:05:09;;;;;;;6.65;2.90;;;;;;;18.59;76.38;64929.28;5071881;28;20189;-55
2023/10/29 08:07:34;;;;;;;5.95;2.83;;;;;;;19.06;81.48;64978.03;5053608;28;20252;-54
2023/10/29 08:10:00;;;;;;;5.03;2.83;;;;;;;19.25;76.71;64999.00;5071949;28;20220;-54
2023/10/29 08:12:28;;;;;;;9.48;2.42;;;;;;;19.94;70.86;65072.66;5071951;28;20212;-54
2023/10/29 08:14:54;;;;;;;5.35;2.30;;;;;;;20.21;65.72;65104.50;5071499;28;20208;-54
2023/10/29 08:17:21;;;;;;;6.10;2.83;;;;;;;20.51;79.55;65140.22;5071339;28;20208;-56
2023/10/29 08:19:47;;;;;;;7.38;2.58;;;;;;;20.83;66.72;65173.03;5071264;28;20227;-55
2023/10/29 08:22:14;;;;;;;6.20;3.15;;;;;;;21.24;70.58;65217.84;5071329;28;20252;-54
2023/10/29 08:24:41;;;;;;;5.88;3.13;;;;;;;21.49;65.59;65245.47;5071349;28;20193;-54
2023/10/29 08:27:07;;;;;;;6.40;3.67;;;;;;;21.43;62.62;65238.28;5071232;28;20216;-54
2023/10/29 08:29:38;;;;;;;9.82;4.78;;;;;;;21.63;59.35;65262.97;5071232;28;20193;-54
2023/10/29 08:32:04;;;;;;;7.70;4.53;;;;;;;21.79;63.87;65278.13;5071541;28;20220;-54
2023/10/29 08:34:30;;;;;;;9.65;4.95;;;;;;;21.91;60.04;65290.84;5071099;28;20204;-54
2023/10/29 08:36:56;;;;;;;11.20;4.53;;;;;;;22.10;62.62;65315.00;5071084;28;20217;-53
2023/10/29 08:39:22;;;;;;;11.40;4.85;;;;;;;22.39;59.07;65346.53;5070984;28;20538;-53
2023/10/29 08:41:48;;;;;;;10.80;4.75;;;;;;;22.25;53.60;65328.47;5071045;28;20662;-56
2023/10/29 08:44:14;;;;;;;6.22;3.90;;;;;;;21.78;53.43;65277.00;5036555;28;20204;-54
2023/10/29 08:46:41;;;;;;;6.93;3.88;;;;;;;21.86;54.87;65285.31;5070846;28;20266;-56
2023/10/29 08:49:07;;;;;;;7.10;4.05;;;;;;;21.61;56.41;65258.75;5071098;28;20196;-56
2023/10/29 08:51:32;;;;;;;8.70;4.15;;;;;;;21.69;52.21;65267.06;5071197;28;20266;-53
2023/10/29 08:53:57;;;;;;;9.52;4.07;;;;;;;21.93;53.78;65293.06;5070990;28;20698;-53
2023/10/29 08:56:24;;;;;;;10.48;4.57;;;;;;;22.14;53.56;65316.31;5070589;28;20664;-54
2023/10/29 08:58:49;;;;;;;10.30;4.28;;;;;;;22.10;50.76;65311.88;5070875;28;20203;-53
2023/10/29 09:01:17;;;;;;;8.20;4.45;;;;;;;21.82;50.80;65281.44;5070972;28;20205;-53
2023/10/29 09:03:42;;;;;;;8.95;4.15;;;;;;;21.77;52.27;65272.78;5070860;28;20196;-53
2023/10/29 09:06:08;;;;;;;5.72;3.58;;;;;;;22.18;51.32;65320.75;5070662;28;20326;-53
2023/10/29 09:08:34;;;;;;;5.68;3.40;;;;;;;22.47;50.19;65352.84;5070622;28;20195;-55
2023/10/29 09:11:01;;;;;;;9.35;4.03;;;;;;;22.71;48.65;65376.84;5070613;28;20251;-53
2023/10/29 09:13:27;;;;;;;8.10;3.88;;;;;;;22.95;49.42;65405.44;5070377;28;20208;-53
2023/10/29 09:15:52;;;;;;;8.10;3.45;;;;;;;23.22;49.11;65432.78;5070759;28;20277;-54
2023/10/29 09:18:19;;;;;;;5.32;3.50;;;;;;;23.49;48.24;65464.75;5070490;28;20223;-53
2023/10/29 09:20:47;;;;;;;8.80;3.25;;;;;;;23.55;47.49;65471.97;5070607;28;20659;-53
2023/10/29 09:23:14;;;;;;;5.95;3.05;;;;;;;23.76;46.13;65492.09;5070485;28;20220;-54
2023/10/29 09:25:44;;;;;;;6.07;2.80;;;;;;;23.84;46.43;65504.09;5070661;28;20324;-53
2023/10/29 09:28:11;;;;;;;6.68;3.10;;;;;;;24.22;45.19;65542.56;5070626;28;20197;-55
2023/10/29 09:30:37;;;;;;;5.00;2.53;;;;;;;24.39;45.44;65564.53;5070406;28;20196;-52
2023/10/29 09:33:02;;;;;;;5.20;2.50;;;;;;;24.67;43.21;65590.44;5070407;28;20216;-52
2023/10/29 09:35:28;;;;;;;8.25;3.08;;;;;;;24.86;43.48;65616.69;5070075;28;20653;-53
2023/10/29 09:37:54;;;;;;;5.35;2.60;;;;;;;24.90;44.25;65618.00;5070398;28;20223;-53
2023/10/29 09:40:19;;;;;;;6.13;3.05;;;;;;;25.26;41.50;65659.97;5070229;28;20192;-53
2023/10/29 09:42:53;;;;;;;5.15;3.00;;;;;;;25.46;41.49;65677.00;5070554;28;20654;-53
2023/10/29 09:45:22;;;;;;;6.50;2.55;;;;;;;25.59;41.90;65696.63;5070362;28;20197;-52
2023/10/29 09:47:48;;;;;;;7.55;2.50;;;;;;;25.69;41.41;65705.69;5070112;28;20216;-53
2023/10/29 09:50:14;;;;;;;6.15;2.85;;;;;;;25.89;41.54;65727.34;5070234;28;20246;-52
2023/10/29 09:52:41;;;;;;;7.20;2.67;;;;;;;25.68;42.14;65704.59;5070393;28;20224;-52
2023/10/29 09:55:08;;;;;;;5.93;2.65;;;;;;;25.80;41.50;65714.75;5070289;28;20201;-53
2023/10/29 09:57:35;;;;;;;8.45;2.40;;;;;;;25.78;39.15;65712.53;5070523;28;20596;-55
2023/10/29 10:00:00;;;;;;;4.80;1.98;;;;;;;24.80;40.08;65609.47;5073767;28;20343;-55
2023/10/29 10:02:26;;;;;;;2.90;2.05;;;;;;;25.36;39.94;65669.03;5074075;28;20681;-54
2023/10/29 10:04:54;;;;;;;6.93;2.40;;;;;;;25.61;41.46;65696.78;5056256;28;20180;-53
2023/10/29 10:07:21;;;;;;;4.63;1.90;;;;;;;25.67;40.23;65700.88;5072372;22;20262;-54
2023/10/29 10:09:54;;;;;;;4.28;2.35;;;;;;;25.77;40.52;65717.16;5094024;28;20196;-54
2023/10/29 10:12:20;;;;;;;4.65;1.67;;;;;;;26.02;40.34;65741.22;5093906;28;20339;-54
2023/10/29 10:14:49;;;;;;;5.55;1.85;;;;;;;26.07;38.90;65746.78;5094005;28;20591;-54
2023/10/29 10:17:15;;;;;;;4.70;2.10;;;;;;;25.71;38.26;65710.47;5075631;28;20223;-53
2023/10/29 10:19:41;;;;;;;3.35;2.13;;;;;;;25.88;39.33;65728.28;5093786;28;20578;-53
2023/10/29 10:22:07;;;;;;;3.72;2.00;;;;;;;25.99;39.18;65741.03;5093706;28;20303;-54
2023/10/29 10:24:43;;;;;;;2.88;1.77;;;;;;;26.08;37.38;65747.91;5093576;28;20738;-54
2023/10/29 10:27:09;;;;;;;5.20;1.98;;;;;;;25.64;38.65;65699.56;5093930;28;20211;-53
2023/10/29 10:29:35;;;;;;;4.38;1.88;;;;;;;25.83;38.54;65720.69;5093666;28;20203;-54
2023/10/29 10:32:05;;;;;;;7.47;2.63;;;;;;;25.55;39.36;65690.13;5093776;28;20215;-54
2023/10/29 10:34:37;;;;;;;7.43;3.25;;;;;;;25.45;39.77;65678.50;5058901;28;20290;-54
2023/10/29 10:37:04;;;;;;;6.18;3.63;;;;;;;25.31;40.59;65663.47;5076034;28;20220;-53
2023/10/29 10:39:31;;;;;;;5.47;1.67;;;;;;;25.04;38.03;65635.53;5093806;28;20196;-54
2023/10/29 10:42:00;;;;;;;7.10;2.90;;;;;;;24.56;40.02;65583.41;5093499;28;20243;-60
2023/10/29 10:44:27;;;;;;;3.72;1.98;;;;;;;24.25;38.95;65546.44;5093413;28;20192;-52
2023/10/29 10:46:54;;;;;;;3.92;2.70;;;;;;;24.03;39.92;65522.03;5093794;28;20214;-54
2023/10/29 10:49:23;;;;;;;5.18;2.33;;;;;;;23.56;40.69;65469.91;5093458;28;20286;-54
2023/10/29 10:51:58;;;;;;;3.90;1.65;;;;;;;24.50;39.48;65576.19;5074945;28;20281;-53
2023/10/29 10:54:29;;;;;;;6.63;2.33;;;;;;;24.51;39.69;65575.25;5075012;28;20210;-54
2023/10/29 10:56:55;;;;;;;4.22;2.10;;;;;;;24.40;38.88;65562.53;5075349;28;20235;-53
2023/10/29 10:59:22;;;;;;;7.00;2.30;;;;;;;23.73;39.19;65491.91;5093304;28;20337;-53
2023/10/29 11:01:48;;;;;;;3.72;1.73;;;;;;;23.83;40.56;65497.84;5093084;28;20360;-54
2023/10/29 11:04:15;;;;;;;4.45;2.15;;;;;;;24.19;40.03;65539.78;5093181;28;20715;-52
2023/10/29 11:06:41;;;;;;;5.18;2.22;;;;;;;24.20;39.95;65538.31;5093250;28;20211;-53
2023/10/29 11:09:14;;;;;;;4.05;2.00;;;;;;;24.43;40.26;65568.41;5092785;28;20200;-53
2023/10/29 11:11:46;;;;;;;6.88;2.20;;;;;;;24.73;38.91;65602.25;5058987;28;20223;-52
2023/10/29 11:14:12;;;;;;;4.47;1.60;;;;;;;24.59;40.19;65581.00;5093013;28;20199;-53
2023/10/29 11:16:57;;;;;;;6.78;2.90;;;;;;;24.65;39.31;65590.78;5074384;28;20694;-53
2023/10/29 11:19:47;;;;;;;4.20;1.80;;;;;;;24.97;38.59;65628.88;5092536;28;20249;-52
2023/10/29 11:22:17;;;;;;;4.53;1.75;;;;;;;25.26;37.62;65657.38;5074402;28;20212;-53
2023/10/29 11:24:44;;;;;;;6.20;1.75;;;;;;;25.05;36.73;65634.63;5074473;28;20685;-52